createdAt,value
2022-09-02T00:12:28.229Z,1019.96
2022-09-02T00:27:29.006Z,1019.96
2022-09-02T00:42:30.299Z,1019.94
2022-09-02T00:57:30.871Z,1019.88
2022-09-02T01:12:32.142Z,1019.79
2022-09-02T01:27:34.728Z,1019.82
2022-09-02T01:42:35.945Z,1019.63
2022-09-02T01:57:37.034Z,1019.67
2022-09-02T02:12:39.895Z,1019.57
2022-09-02T02:27:40.800Z,1019.55
2022-09-02T02:42:46.368Z,1019.50
2022-09-02T02:57:46.826Z,1019.53
2022-09-02T03:12:47.623Z,1019.55
2022-09-02T03:27:48.732Z,1019.42
2022-09-02T03:42:49.919Z,1019.34
2022-09-02T03:57:51.374Z,1019.31
2022-09-02T04:12:52.230Z,1019.34
2022-09-02T04:27:54.713Z,1019.35
2022-09-02T04:42:55.730Z,1019.36
2022-09-02T04:57:56.180Z,1019.47
2022-09-02T05:12:57.387Z,1019.42
2022-09-02T05:27:58.462Z,1019.54
2022-09-02T05:42:59.594Z,1019.60
2022-09-02T05:58:00.226Z,1019.59
2022-09-02T06:13:00.927Z,1019.66
2022-09-02T06:28:06.853Z,1019.64
2022-09-02T06:43:11.220Z,1019.64
2022-09-02T06:58:12.642Z,1019.59
2022-09-02T07:13:14.478Z,1019.60
2022-09-02T07:28:15.954Z,1019.63
2022-09-02T07:43:16.468Z,1019.54
2022-09-02T07:58:18.009Z,1019.64
2022-09-02T08:13:20.384Z,1019.58
2022-09-02T08:28:21.629Z,1019.61
2022-09-02T08:43:23.136Z,1019.62
2022-09-02T08:58:24.393Z,1019.48
2022-09-02T09:13:25.075Z,1019.30
2022-09-02T09:28:26.853Z,1019.30
2022-09-02T09:43:28.679Z,1019.11
2022-09-02T09:58:30.176Z,1019.03
2022-09-02T10:13:31.509Z,1019.01
2022-09-02T10:28:33.389Z,1018.78
2022-09-02T10:43:34.736Z,1018.61
2022-09-02T10:58:36.086Z,1018.59
2022-09-02T11:13:37.466Z,1018.49
2022-09-02T11:28:37.775Z,1018.51
2022-09-02T11:43:38.721Z,1018.38
2022-09-02T11:58:40.858Z,1018.30
2022-09-02T12:13:43.484Z,1018.11
2022-09-02T12:28:45.090Z,1017.83
2022-09-02T12:43:45.695Z,1017.84
2022-09-02T12:58:48.146Z,1017.68
2022-09-02T13:13:50.980Z,1017.60
2022-09-02T13:28:51.433Z,1017.50
2022-09-02T13:43:52.760Z,1017.34
2022-09-02T13:58:55.246Z,1017.21
2022-09-02T14:13:57.615Z,1016.99
2022-09-02T14:28:58.984Z,1017.00
2022-09-02T14:43:59.889Z,1016.88
2022-09-02T14:59:01.911Z,1016.83
2022-09-02T15:14:03.778Z,1016.84
2022-09-02T15:29:05.627Z,1016.76
2022-09-02T15:44:07.501Z,1016.63
2022-09-02T15:59:10.380Z,1016.63
2022-09-02T16:14:14.063Z,1016.70
2022-09-02T16:29:16.586Z,1016.67
2022-09-02T16:44:18.470Z,1016.47
2022-09-02T16:59:20.310Z,1016.43
2022-09-02T17:14:21.449Z,1016.32
2022-09-02T17:29:53.832Z,1016.43
2022-09-02T17:44:31.381Z,1016.50
2022-09-02T17:59:33.246Z,1016.49
2022-09-02T18:14:36.367Z,1016.48
2022-09-02T18:29:39.108Z,1016.60
2022-09-02T18:44:40.988Z,1016.63
2022-09-02T18:59:42.827Z,1016.91
2022-09-02T19:14:43.141Z,1016.96
2022-09-02T19:29:44.760Z,1017.06
2022-09-02T19:44:44.930Z,1017.00
2022-09-02T19:59:45.764Z,1017.00
2022-09-02T20:14:47.737Z,1017.04
2022-09-02T20:29:49.959Z,1017.09
2022-09-02T20:44:52.160Z,1017.16
2022-09-02T20:59:54.244Z,1017.26
2022-09-02T21:14:56.117Z,1017.30
2022-09-02T21:30:01.625Z,1017.33
2022-09-02T21:45:02.540Z,1017.38
2022-09-02T22:00:03.500Z,1017.34
2022-09-02T22:15:05.805Z,1017.33
2022-09-02T22:30:07.553Z,1017.37
2022-09-02T22:45:08.642Z,1017.38
2022-09-02T23:00:09.585Z,1017.26
2022-09-02T23:15:10.437Z,1017.18
2022-09-02T23:30:14.602Z,1017.15
2022-09-02T23:45:16.072Z,1017.04
